Time;durP1;ratioP1;P1;durP2;ratioP2;P2;SDS_P1;SDS_P2;PMS_P1;PMS_P2;Temp;Humidity;BMP_temperature;BMP_pressure;BME280_temperature;BME280_humidity;BME280_pressure;Samples;Min_cycle;Max_cycle;Signal;HPM_P1;HPM_P2
2023/01/30 00:01:22;;;;;;;;;;;6.20;99.90;;;;;;5122043;27;19932;-81
2023/01/30 00:03:47;;;;;;;;;;;6.20;99.90;;;;;;5143259;27;19955;-82
2023/01/30 00:06:13;;;;;;;;;;;6.20;99.90;;;;;;5124413;27;19949;-81
2023/01/30 00:08:39;;;;;;;;;;;6.20;99.90;;;;;;5124033;27;19927;-81
2023/01/30 00:11:05;;;;;;;;;;;6.20;99.90;;;;;;5122495;27;19935;-81
2023/01/30 00:13:31;;;;;;;;;;;6.20;99.90;;;;;;5123571;27;19952;-81
2023/01/30 00:15:57;;;;;;;;;;;6.30;99.90;;;;;;5143170;27;20317;-82
2023/01/30 00:18:23;;;;;;;;;;;6.30;99.90;;;;;;5112611;27;19934;-81
2023/01/30 00:20:54;;;;;;;;;;;6.20;99.90;;;;;;5126672;27;19931;-81
2023/01/30 00:23:19;;;;;;;;;;;6.30;99.90;;;;;;5122462;27;19923;-81
2023/01/30 00:25:45;;;;;;;;;;;6.30;99.90;;;;;;5090072;27;19971;-81
2023/01/30 00:28:10;;;;;;;;;;;6.30;99.90;;;;;;5123154;27;19923;-81
2023/01/30 00:30:36;;;;;;;;;;;6.30;99.90;;;;;;5117111;27;19993;-81
2023/01/30 00:33:02;;;;;;;;;;;6.30;99.90;;;;;;5124154;27;19927;-81
2023/01/30 00:35:27;;;;;;;;;;;6.30;99.90;;;;;;5104356;27;19927;-81
2023/01/30 00:37:56;;;;;;;;;;;6.30;99.90;;;;;;5104104;27;19966;-81
2023/01/30 00:40:23;;;;;;;;;;;6.30;99.90;;;;;;5122585;27;19930;-81
2023/01/30 00:48:18;;;;;;;;;;;6.30;99.90;;;;;;5110406;27;20394;-81
2023/01/30 00:50:43;;;;;;;;;;;6.30;99.90;;;;;;5104299;27;19930;-81
2023/01/30 00:53:13;;;;;;;;;;;6.30;99.90;;;;;;5116600;27;19923;-81
2023/01/30 00:55:39;;;;;;;;;;;6.30;99.90;;;;;;5103665;27;20303;-81
2023/01/30 00:58:04;;;;;;;;;;;6.40;99.90;;;;;;5104507;27;19931;-81
2023/01/30 01:00:30;;;;;;;;;;;6.40;99.90;;;;;;5099455;27;19927;-81
2023/01/30 01:02:56;;;;;;;;;;;6.30;99.90;;;;;;5122846;27;19936;-82
2023/01/30 01:05:21;;;;;;;;;;;6.40;99.90;;;;;;5121162;28;20006;-81
2023/01/30 01:07:47;;;;;;;;;;;6.40;99.90;;;;;;5119912;27;19924;-81
2023/01/30 01:10:15;;;;;;;;;;;6.40;99.90;;;;;;5118558;27;19931;-81
2023/01/30 01:12:42;;;;;;;;;;;6.40;99.90;;;;;;5141253;27;19953;-82
2023/01/30 01:15:08;;;;;;;;;;;6.40;99.90;;;;;;5123779;27;19928;-81
2023/01/30 01:17:33;;;;;;;;;;;6.40;99.90;;;;;;5122771;27;20731;-82
2023/01/30 01:19:59;;;;;;;;;;;6.40;99.90;;;;;;5116737;27;19928;-82
2023/01/30 01:22:25;;;;;;;;;;;6.40;99.90;;;;;;5119737;27;19924;-82
2023/01/30 01:24:50;;;;;;;;;;;6.40;99.90;;;;;;5122849;27;19978;-82
2023/01/30 01:27:17;;;;;;;;;;;6.40;99.90;;;;;;5126847;27;19972;-82
2023/01/30 01:29:43;;;;;;;;;;;6.40;99.90;;;;;;5125738;27;19970;-81
2023/01/30 01:32:08;;;;;;;;;;;6.40;99.90;;;;;;5104364;27;19948;-81
2023/01/30 01:34:34;;;;;;;;;;;6.50;99.90;;;;;;5122141;27;19930;-81
2023/01/30 01:36:59;;;;;;;;;;;6.50;99.90;;;;;;5106100;27;19931;-80
2023/01/30 01:41:00;;;;;;;;;;;6.50;99.90;;;;;;5103769;27;19963;-80
2023/01/30 01:42:10;;;;;;;;;;;6.50;99.90;;;;;;5118967;27;19932;-81
2023/01/30 01:44:55;;;;;;;;;;;6.50;99.90;;;;;;5122533;27;19934;-81
2023/01/30 01:47:20;;;;;;;;;;;6.50;99.90;;;;;;5116941;27;19983;-81
2023/01/30 01:49:46;;;;;;;;;;;6.50;99.90;;;;;;5106634;27;20429;-81
2023/01/30 01:52:14;;;;;;;;;;;6.60;99.90;;;;;;5103992;27;19962;-81
2023/01/30 01:54:46;;;;;;;;;;;6.60;99.90;;;;;;5123847;27;19930;-81
2023/01/30 01:57:14;;;;;;;;;;;6.60;99.90;;;;;;5104981;27;20007;-81
2023/01/30 01:59:43;;;;;;;;;;;6.60;99.90;;;;;;5123030;27;19934;-81
2023/01/30 02:02:11;;;;;;;;;;;6.60;99.90;;;;;;5104270;27;20338;-81
2023/01/30 02:07:22;;;;;;;;;;;6.60;99.90;;;;;;5115844;27;19923;-80
2023/01/30 02:09:49;;;;;;;;;;;6.60;99.90;;;;;;5119805;27;19928;-81
2023/01/30 02:12:14;;;;;;;;;;;6.70;99.90;;;;;;5136980;27;19924;-81
2023/01/30 02:14:41;;;;;;;;;;;6.70;99.90;;;;;;5120589;27;19985;-81
2023/01/30 02:17:07;;;;;;;;;;;6.70;99.90;;;;;;5121184;27;20361;-81
2023/01/30 02:19:47;;;;;;;;;;;6.70;99.90;;;;;;5121844;27;19947;-81
2023/01/30 02:22:32;;;;;;;;;;;6.70;99.90;;;;;;5111814;27;19923;-81
2023/01/30 02:25:03;;;;;;;;;;;6.70;99.90;;;;;;5137450;27;20452;-81
2023/01/30 02:27:39;;;;;;;;;;;6.80;99.90;;;;;;5124033;27;19931;-81
2023/01/30 02:30:04;;;;;;;;;;;6.80;99.90;;;;;;5101185;27;19930;-82
2023/01/30 02:32:36;;;;;;;;;;;6.80;99.90;;;;;;5102590;27;19923;-81
2023/01/30 02:35:02;;;;;;;;;;;6.80;99.90;;;;;;5124533;27;19963;-81
2023/01/30 02:37:34;;;;;;;;;;;6.80;99.90;;;;;;5125646;27;19924;-81
2023/01/30 02:40:12;;;;;;;;;;;6.80;99.90;;;;;;5103978;27;19930;-81
2023/01/30 02:42:38;;;;;;;;;;;6.70;99.90;;;;;;5121311;27;19944;-81
2023/01/30 02:45:19;;;;;;;;;;;6.80;99.90;;;;;;5116539;27;19924;-81
2023/01/30 02:47:47;;;;;;;;;;;6.70;99.90;;;;;;5101234;28;19931;-81
2023/01/30 02:50:19;;;;;;;;;;;6.70;99.90;;;;;;5102333;28;19924;-81
2023/01/30 02:52:45;;;;;;;;;;;6.70;99.90;;;;;;5105764;28;19928;-81
2023/01/30 02:55:22;;;;;;;;;;;6.70;99.90;;;;;;5087722;28;19927;-81
2023/01/30 02:57:47;;;;;;;;;;;6.70;99.90;;;;;;5117680;28;19927;-81
2023/01/30 03:00:15;;;;;;;;;;;6.70;99.90;;;;;;5115290;27;20305;-81
2023/01/30 03:03:09;;;;;;;;;;;6.70;99.90;;;;;;5103696;28;19980;-80
2023/01/30 03:05:38;;;;;;;;;;;6.70;99.90;;;;;;5097144;28;19999;-81
2023/01/30 03:08:24;;;;;;;;;;;6.70;99.90;;;;;;5114925;28;20449;-81
2023/01/30 03:11:06;;;;;;;;;;;6.70;99.90;;;;;;5115905;28;20100;-80
2023/01/30 03:13:41;;;;;;;;;;;6.70;99.90;;;;;;5117064;28;19928;-81
2023/01/30 03:16:07;;;;;;;;;;;6.70;99.90;;;;;;5107971;28;19947;-81
2023/01/30 03:18:32;;;;;;;;;;;6.70;99.90;;;;;;5120664;28;20454;-81
2023/01/30 03:21:03;;;;;;;;;;;6.60;99.90;;;;;;5096757;28;19935;-81
2023/01/30 03:23:28;;;;;;;;;;;6.70;99.90;;;;;;5110691;28;19927;-81
2023/01/30 03:25:54;;;;;;;;;;;6.70;99.90;;;;;;5117577;28;20023;-81
2023/01/30 03:28:20;;;;;;;;;;;6.70;99.90;;;;;;5101845;28;19924;-80
2023/01/30 03:30:46;;;;;;;;;;;6.70;99.90;;;;;;5114299;28;19924;-80
2023/01/30 03:33:11;;;;;;;;;;;6.70;99.90;;;;;;5116982;28;19928;-81
2023/01/30 03:35:37;;;;;;;;;;;6.70;99.90;;;;;;5118891;28;20259;-81
2023/01/30 03:38:03;;;;;;;;;;;6.70;99.90;;;;;;5104596;28;19971;-81
2023/01/30 03:40:28;;;;;;;;;;;6.70;99.90;;;;;;5099873;28;19991;-81
2023/01/30 03:42:54;;;;;;;;;;;6.80;99.90;;;;;;5099516;28;19931;-81
2023/01/30 03:45:19;;;;;;;;;;;6.80;99.90;;;;;;5114217;28;19935;-81
2023/01/30 03:47:45;;;;;;;;;;;6.80;99.90;;;;;;5102160;28;19932;-81
2023/01/30 03:50:11;;;;;;;;;;;6.80;99.90;;;;;;5076365;28;19968;-81
2023/01/30 03:52:36;;;;;;;;;;;6.80;99.90;;;;;;5080532;28;20414;-80
2023/01/30 03:55:02;;;;;;;;;;;6.80;99.90;;;;;;5083463;28;20359;-81
2023/01/30 03:57:27;;;;;;;;;;;6.80;99.90;;;;;;5099650;28;19955;-80
2023/01/30 03:59:53;;;;;;;;;;;6.90;99.90;;;;;;5070933;28;22823;-81
2023/01/30 04:02:21;;;;;;;;;;;6.90;99.90;;;;;;5097415;28;19930;-81
2023/01/30 04:04:50;;;;;;;;;;;6.90;99.90;;;;;;5099741;28;19964;-80
2023/01/30 04:07:16;;;;;;;;;;;6.90;99.90;;;;;;5082038;28;19924;-80
2023/01/30 04:09:42;;;;;;;;;;;6.80;99.90;;;;;;5097261;28;19924;-81
2023/01/30 04:12:08;;;;;;;;;;;6.90;99.90;;;;;;5083916;28;19928;-81
2023/01/30 04:14:33;;;;;;;;;;;6.90;99.90;;;;;;5090040;28;19984;-81
2023/01/30 04:16:59;;;;;;;;;;;6.80;99.90;;;;;;5098349;28;19924;-81
2023/01/30 04:19:24;;;;;;;;;;;6.80;99.90;;;;;;5074501;28;20374;-81
2023/01/30 04:21:50;;;;;;;;;;;6.90;99.90;;;;;;5082403;28;19932;-81
2023/01/30 04:24:16;;;;;;;;;;;6.90;99.90;;;;;;5098573;28;19928;-81
2023/01/30 04:26:41;;;;;;;;;;;6.90;99.90;;;;;;5094536;28;20481;-81
2023/01/30 04:29:07;;;;;;;;;;;6.90;99.90;;;;;;5082186;28;19924;-81
2023/01/30 04:31:32;;;;;;;;;;;6.90;99.90;;;;;;5080337;28;19953;-81
2023/01/30 04:34:01;;;;;;;;;;;6.90;99.90;;;;;;5100473;28;20287;-81
2023/01/30 04:36:28;;;;;;;;;;;6.90;99.90;;;;;;5098337;28;19946;-80
2023/01/30 04:38:55;;;;;;;;;;;6.90;99.90;;;;;;5098126;28;19928;-80
2023/01/30 04:41:20;;;;;;;;;;;6.90;99.90;;;;;;5079467;28;19929;-80
2023/01/30 04:43:46;;;;;;;;;;;6.90;99.90;;;;;;5072687;28;20054;-80
2023/01/30 04:46:11;;;;;;;;;;;6.90;99.90;;;;;;5077916;28;19924;-80
2023/01/30 04:48:38;;;;;;;;;;;6.90;99.90;;;;;;5140439;27;19923;-80
2023/01/30 04:51:03;;;;;;;;;;;6.90;99.90;;;;;;5124807;27;19923;-80
2023/01/30 04:53:29;;;;;;;;;;;6.90;99.90;;;;;;5106513;27;19923;-80
2023/01/30 04:55:55;;;;;;;;;;;6.80;99.90;;;;;;5124105;27;19930;-80
2023/01/30 04:58:20;;;;;;;;;;;6.80;99.90;;;;;;5117071;28;19928;-81
2023/01/30 05:00:46;;;;;;;;;;;6.70;99.90;;;;;;5126565;27;19930;-81
2023/01/30 05:03:12;;;;;;;;;;;6.70;99.90;;;;;;5107551;27;19929;-81
2023/01/30 05:05:38;;;;;;;;;;;6.60;99.90;;;;;;5123613;27;19959;-81
2023/01/30 05:08:03;;;;;;;;;;;6.50;99.90;;;;;;5118441;27;20500;-81
2023/01/30 05:10:29;;;;;;;;;;;6.50;99.90;;;;;;5097370;27;19923;-81
2023/01/30 05:12:54;;;;;;;;;;;6.40;99.90;;;;;;5130977;27;20417;-80
2023/01/30 05:15:20;;;;;;;;;;;6.40;99.90;;;;;;5106645;27;19927;-80
2023/01/30 05:17:46;;;;;;;;;;;6.40;99.90;;;;;;5104770;27;19967;-81
2023/01/30 05:20:12;;;;;;;;;;;6.30;99.90;;;;;;5120845;27;19956;-80
2023/01/30 05:22:38;;;;;;;;;;;6.30;99.90;;;;;;5122274;27;19927;-81
2023/01/30 05:25:04;;;;;;;;;;;6.20;99.90;;;;;;5106104;27;19934;-81
2023/01/30 05:27:29;;;;;;;;;;;6.10;99.90;;;;;;5104791;27;19927;-80
2023/01/30 05:29:55;;;;;;;;;;;6.10;99.90;;;;;;5120313;27;19938;-81
2023/01/30 05:32:20;;;;;;;;;;;6.00;99.90;;;;;;5105101;27;20014;-80
2023/01/30 05:34:47;;;;;;;;;;;6.00;99.90;;;;;;5103766;27;20283;-80
2023/01/30 05:37:12;;;;;;;;;;;5.90;99.90;;;;;;5119150;27;19934;-80
2023/01/30 05:39:38;;;;;;;;;;;5.90;99.90;;;;;;5091898;28;19924;-81
2023/01/30 05:42:04;;;;;;;;;;;5.90;99.90;;;;;;5083862;27;19924;-81
2023/01/30 05:44:29;;;;;;;;;;;5.90;99.90;;;;;;5119391;27;22100;-81
2023/01/30 05:46:55;;;;;;;;;;;5.80;99.90;;;;;;5117529;27;19923;-80
2023/01/30 05:49:21;;;;;;;;;;;5.80;99.90;;;;;;5136250;27;19958;-80
2023/01/30 05:51:46;;;;;;;;;;;5.70;99.90;;;;;;5085466;28;19956;-81
2023/01/30 05:54:12;;;;;;;;;;;5.70;99.90;;;;;;5105628;27;20013;-81
2023/01/30 05:56:37;;;;;;;;;;;5.70;99.90;;;;;;5105010;27;19931;-81
2023/01/30 05:59:03;;;;;;;;;;;5.60;99.90;;;;;;5137056;27;19962;-81
2023/01/30 06:01:29;;;;;;;;;;;5.50;99.90;;;;;;5112480;27;19931;-81
2023/01/30 06:03:54;;;;;;;;;;;5.60;99.90;;;;;;5115015;27;19927;-81
2023/01/30 06:06:21;;;;;;;;;;;5.60;99.90;;;;;;5120852;27;19945;-80
2023/01/30 06:08:47;;;;;;;;;;;5.50;99.90;;;;;;5101685;27;20005;-80
2023/01/30 06:11:16;;;;;;;;;;;5.50;99.90;;;;;;5106850;28;19928;-81
2023/01/30 06:13:41;;;;;;;;;;;5.50;99.90;;;;;;5109368;27;19987;-81
2023/01/30 06:16:08;;;;;;;;;;;5.50;99.90;;;;;;5122458;27;19923;-80
2023/01/30 06:18:34;;;;;;;;;;;5.40;99.90;;;;;;5121189;27;20093;-81
2023/01/30 06:21:00;;;;;;;;;;;5.40;99.90;;;;;;5121889;27;19927;-81
2023/01/30 06:23:26;;;;;;;;;;;5.40;99.90;;;;;;5121368;27;20037;-81
2023/01/30 06:25:53;;;;;;;;;;;5.30;99.90;;;;;;5100006;27;19929;-80
2023/01/30 06:28:18;;;;;;;;;;;5.30;99.90;;;;;;5123555;27;19944;-81
2023/01/30 06:30:44;;;;;;;;;;;5.30;99.90;;;;;;5114088;27;19927;-81
2023/01/30 06:33:09;;;;;;;;;;;5.30;99.90;;;;;;5123557;27;20003;-81
2023/01/30 06:35:39;;;;;;;;;;;5.30;99.90;;;;;;5098833;28;19927;-81
2023/01/30 06:38:05;;;;;;;;;;;5.30;99.90;;;;;;5095812;27;19929;-81
2023/01/30 06:40:31;;;;;;;;;;;5.30;99.90;;;;;;5100087;27;20033;-81
2023/01/30 06:42:56;;;;;;;;;;;5.30;99.90;;;;;;5118458;27;19968;-81
2023/01/30 06:45:22;;;;;;;;;;;5.30;99.90;;;;;;5083916;28;19974;-81
2023/01/30 06:47:49;;;;;;;;;;;5.40;99.90;;;;;;5116755;27;19969;-81
2023/01/30 06:50:16;;;;;;;;;;;5.40;99.90;;;;;;5121129;27;19929;-82
2023/01/30 06:52:43;;;;;;;;;;;5.40;99.90;;;;;;5116591;27;19927;-82
2023/01/30 06:55:10;;;;;;;;;;;5.50;99.90;;;;;;5103193;27;19924;-81
2023/01/30 06:57:35;;;;;;;;;;;5.60;99.90;;;;;;5115832;27;19931;-82
2023/01/30 07:00:02;;;;;;;;;;;5.60;99.90;;;;;;5096547;27;19927;-81
2023/01/30 07:02:31;;;;;;;;;;;5.70;99.90;;;;;;5102154;28;19930;-81
2023/01/30 07:04:56;;;;;;;;;;;5.70;99.90;;;;;;5102311;27;20357;-82
2023/01/30 07:07:22;;;;;;;;;;;5.70;99.90;;;;;;5120178;27;19923;-82
2023/01/30 07:09:47;;;;;;;;;;;5.80;99.90;;;;;;5112615;28;19980;-82
2023/01/30 07:12:13;;;;;;;;;;;5.70;99.90;;;;;;5105129;28;19955;-82
2023/01/30 07:14:38;;;;;;;;;;;5.70;99.90;;;;;;5092199;28;19931;-81
2023/01/30 07:17:04;;;;;;;;;;;5.70;99.90;;;;;;5089070;28;19924;-82
2023/01/30 07:19:29;;;;;;;;;;;5.70;99.90;;;;;;5102806;28;20494;-82
2023/01/30 07:21:55;;;;;;;;;;;5.70;99.90;;;;;;5100139;28;19923;-82
2023/01/30 07:24:21;;;;;;;;;;;5.70;99.90;;;;;;5103131;28;19956;-83
2023/01/30 07:26:46;;;;;;;;;;;5.70;99.90;;;;;;5100818;28;19933;-83
2023/01/30 07:29:12;;;;;;;;;;;5.70;99.90;;;;;;5103848;28;19992;-83
2023/01/30 07:31:38;;;;;;;;;;;5.70;99.90;;;;;;5103241;28;20285;-82
2023/01/30 07:34:03;;;;;;;;;;;5.60;99.90;;;;;;5102134;28;19931;-82
2023/01/30 07:36:32;;;;;;;;;;;5.70;99.90;;;;;;5089004;28;19990;-81
2023/01/30 07:38:58;;;;;;;;;;;5.60;99.90;;;;;;5111272;28;19928;-81
2023/01/30 07:41:23;;;;;;;;;;;5.60;99.90;;;;;;5100944;28;19931;-82
2023/01/30 07:43:49;;;;;;;;;;;5.60;99.90;;;;;;5094215;28;19924;-81
2023/01/30 07:46:15;;;;;;;;;;;5.60;99.90;;;;;;5141333;28;19969;-82
2023/01/30 07:48:42;;;;;;;;;;;5.60;99.90;;;;;;5119028;28;20523;-82
2023/01/30 07:51:08;;;;;;;;;;;5.70;99.90;;;;;;5099567;28;19928;-81
2023/01/30 07:53:33;;;;;;;;;;;5.70;99.90;;;;;;5120309;28;19934;-81
2023/01/30 07:55:59;;;;;;;;;;;5.80;99.90;;;;;;5095982;28;20045;-82
2023/01/30 07:58:25;;;;;;;;;;;5.80;99.90;;;;;;5115110;28;19923;-82
2023/01/30 08:00:53;;;;;;;;;;;5.80;99.90;;;;;;5116112;28;19927;-82
2023/01/30 08:03:19;;;;;;;;;;;5.80;99.90;;;;;;5121671;28;19923;-81
2023/01/30 08:05:45;;;;;;;;;;;5.80;99.90;;;;;;5107380;28;19931;-81
2023/01/30 08:08:11;;;;;;;;;;;5.90;99.90;;;;;;5106022;28;19928;-81
2023/01/30 08:10:36;;;;;;;;;;;5.90;99.90;;;;;;5119080;28;19923;-81
2023/01/30 08:13:02;;;;;;;;;;;5.90;99.90;;;;;;5118728;27;19923;-81
2023/01/30 08:15:30;;;;;;;;;;;5.90;99.90;;;;;;5117883;27;19927;-80
2023/01/30 08:17:56;;;;;;;;;;;6.00;99.90;;;;;;5103564;27;19991;-81
2023/01/30 08:20:22;;;;;;;;;;;6.00;99.90;;;;;;5121699;27;19945;-80
2023/01/30 08:22:47;;;;;;;;;;;6.00;99.90;;;;;;5117528;27;19933;-81
2023/01/30 08:25:13;;;;;;;;;;;6.00;99.90;;;;;;5137884;27;19967;-80
2023/01/30 08:27:39;;;;;;;;;;;6.10;99.90;;;;;;5096358;27;19938;-81
2023/01/30 08:30:04;;;;;;;;;;;6.10;99.90;;;;;;5116460;27;19934;-81
2023/01/30 08:32:30;;;;;;;;;;;6.10;99.90;;;;;;5101829;27;19927;-80
2023/01/30 08:34:56;;;;;;;;;;;6.10;99.90;;;;;;5122846;27;19929;-81
2023/01/30 08:37:21;;;;;;;;;;;6.20;99.90;;;;;;5125024;27;19923;-81
2023/01/30 08:39:47;;;;;;;;;;;6.20;99.90;;;;;;5087878;27;19977;-80
2023/01/30 08:42:12;;;;;;;;;;;6.20;99.90;;;;;;5142076;27;19975;-81
2023/01/30 08:44:40;;;;;;;;;;;6.20;99.90;;;;;;5121781;27;20147;-81
2023/01/30 08:47:05;;;;;;;;;;;6.30;99.90;;;;;;5123543;27;19923;-81
2023/01/30 08:49:31;;;;;;;;;;;6.30;99.90;;;;;;5119762;27;19930;-81
2023/01/30 08:51:56;;;;;;;;;;;6.30;99.90;;;;;;5123741;27;19923;-81
2023/01/30 08:54:22;;;;;;;;;;;6.30;99.90;;;;;;5122293;27;19923;-81
2023/01/30 08:56:47;;;;;;;;;;;6.30;99.90;;;;;;5103947;27;19931;-81
2023/01/30 08:59:13;;;;;;;;;;;6.30;99.90;;;;;;5120522;27;19934;-82
2023/01/30 09:01:39;;;;;;;;;;;6.30;99.90;;;;;;5088751;27;19930;-82
2023/01/30 09:04:04;;;;;;;;;;;6.30;99.90;;;;;;5101784;27;19923;-81
2023/01/30 09:06:30;;;;;;;;;;;6.30;99.90;;;;;;5110922;27;19927;-81
2023/01/30 09:08:57;;;;;;;;;;;6.40;99.90;;;;;;5123433;27;19930;-81
2023/01/30 09:11:23;;;;;;;;;;;6.40;99.90;;;;;;5124917;27;20009;-81
2023/01/30 09:13:48;;;;;;;;;;;6.40;99.90;;;;;;5110110;27;19923;-82
2023/01/30 09:16:14;;;;;;;;;;;6.40;99.90;;;;;;5125038;27;19931;-81
2023/01/30 09:18:40;;;;;;;;;;;6.50;99.90;;;;;;5102197;28;19938;-81
2023/01/30 09:21:06;;;;;;;;;;;6.60;99.90;;;;;;5113946;27;19930;-81
2023/01/30 09:23:32;;;;;;;;;;;6.60;99.90;;;;;;5109633;27;19923;-82
2023/01/30 09:25:59;;;;;;;;;;;6.70;99.90;;;;;;5106255;27;19924;-81
2023/01/30 09:28:25;;;;;;;;;;;6.70;99.90;;;;;;5093563;27;20014;-81
2023/01/30 09:30:50;;;;;;;;;;;6.80;99.90;;;;;;5101815;28;19931;-81
2023/01/30 09:33:19;;;;;;;;;;;6.80;99.90;;;;;;5135531;27;19924;-81
2023/01/30 09:35:48;;;;;;;;;;;6.80;99.90;;;;;;5121588;27;19924;-82
2023/01/30 09:38:13;;;;;;;;;;;6.90;99.90;;;;;;5123246;27;19923;-81
2023/01/30 09:40:44;;;;;;;;;;;6.90;99.90;;;;;;5122421;27;20009;-81
2023/01/30 09:43:13;;;;;;;;;;;6.90;99.90;;;;;;5123346;27;20133;-81
2023/01/30 09:45:47;;;;;;;;;;;7.00;99.90;;;;;;5123763;27;19979;-81
2023/01/30 09:48:39;;;;;;;;;;;7.10;99.90;;;;;;5100580;27;19962;-81
2023/01/30 09:51:24;;;;;;;;;;;7.20;99.90;;;;;;5102409;27;19927;-81
2023/01/30 09:53:56;;;;;;;;;;;7.30;99.90;;;;;;5110120;28;19928;-81
2023/01/30 09:56:21;;;;;;;;;;;7.40;99.90;;;;;;5095653;27;19927;-81
2023/01/30 09:58:49;;;;;;;;;;;7.40;99.90;;;;;;5112996;27;19923;-81
2023/01/30 10:01:23;;;;;;;;;;;7.40;99.90;;;;;;5097277;27;20399;-82
2023/01/30 10:04:09;;;;;;;;;;;7.30;99.90;;;;;;5118586;27;19938;-82
2023/01/30 10:06:39;;;;;;;;;;;7.40;99.90;;;;;;5116612;27;20317;-82
2023/01/30 10:09:09;;;;;;;;;;;7.40;99.90;;;;;;5103685;27;19931;-81
2023/01/30 10:11:56;;;;;;;;;;;7.40;99.90;;;;;;5120315;27;19924;-81
2023/01/30 10:14:44;;;;;;;;;;;7.50;99.90;;;;;;5099423;27;19923;-81
2023/01/30 10:17:18;;;;;;;;;;;7.60;99.90;;;;;;5118874;27;20034;-82
2023/01/30 10:20:03;;;;;;;;;;;7.60;99.90;;;;;;5103414;27;19931;-81
2023/01/30 10:22:31;;;;;;;;;;;7.60;99.90;;;;;;5119198;27;19924;-81
2023/01/30 10:25:19;;;;;;;;;;;7.50;99.90;;;;;;5114939;27;20400;-81
2023/01/30 10:27:51;;;;;;;;;;;7.40;99.90;;;;;;5111135;27;20220;-81
2023/01/30 10:30:16;;;;;;;;;;;7.50;99.90;;;;;;5118337;27;19923;-80
2023/01/30 10:32:54;;;;;;;;;;;7.50;99.90;;;;;;5121729;27;19938;-81
2023/01/30 10:35:26;;;;;;;;;;;7.60;99.90;;;;;;5115684;27;19955;-81
2023/01/30 10:38:05;;;;;;;;;;;7.60;99.90;;;;;;5110900;28;19928;-81
2023/01/30 10:40:40;;;;;;;;;;;7.70;99.90;;;;;;5110623;27;19932;-81
2023/01/30 10:43:14;;;;;;;;;;;7.80;99.90;;;;;;5114694;27;19948;-82
2023/01/30 10:45:43;;;;;;;;;;;7.90;99.90;;;;;;5125331;27;19948;-82
2023/01/30 10:48:14;;;;;;;;;;;7.90;99.90;;;;;;5113951;27;19924;-81
2023/01/30 10:50:40;;;;;;;;;;;7.90;99.90;;;;;;5123205;27;19950;-82
2023/01/30 10:53:26;;;;;;;;;;;7.90;99.90;;;;;;5116166;28;20469;-82
2023/01/30 10:55:58;;;;;;;;;;;8.00;99.90;;;;;;5099736;27;20014;-81
2023/01/30 10:58:25;;;;;;;;;;;8.00;99.90;;;;;;5126844;27;19962;-81
2023/01/30 11:00:59;;;;;;;;;;;8.00;99.90;;;;;;5113555;27;20540;-81
2023/01/30 11:03:26;;;;;;;;;;;7.90;99.90;;;;;;5133270;27;19929;-80
2023/01/30 11:05:53;;;;;;;;;;;7.90;99.90;;;;;;5118979;28;19928;-80
2023/01/30 11:08:20;;;;;;;;;;;7.90;99.90;;;;;;5117247;27;20321;-81
2023/01/30 11:10:46;;;;;;;;;;;7.80;99.90;;;;;;5098105;28;19995;-81
2023/01/30 11:13:19;;;;;;;;;;;7.90;99.90;;;;;;5120332;27;19927;-81
2023/01/30 11:15:46;;;;;;;;;;;7.90;99.90;;;;;;5121711;28;19945;-81
2023/01/30 11:18:12;;;;;;;;;;;8.00;99.90;;;;;;5120499;28;19923;-80
2023/01/30 11:20:42;;;;;;;;;;;8.00;99.90;;;;;;5116489;28;20490;-82
2023/01/30 11:23:23;;;;;;;;;;;8.00;99.90;;;;;;5116247;28;20389;-81
2023/01/30 11:25:56;;;;;;;;;;;8.10;99.90;;;;;;5112883;28;19948;-81
2023/01/30 11:28:22;;;;;;;;;;;8.10;99.90;;;;;;5122053;28;19930;-81
2023/01/30 11:30:51;;;;;;;;;;;8.20;99.90;;;;;;5134917;28;19935;-81
2023/01/30 11:33:17;;;;;;;;;;;8.20;99.90;;;;;;5103316;28;19923;-82
2023/01/30 11:35:56;;;;;;;;;;;8.20;99.90;;;;;;5095036;28;19927;-82
2023/01/30 11:38:24;;;;;;;;;;;8.10;99.90;;;;;;5098748;28;20381;-81
2023/01/30 11:41:00;;;;;;;;;;;8.10;99.90;;;;;;5133975;28;19930;-81
2023/01/30 11:43:27;;;;;;;;;;;8.10;99.90;;;;;;5114353;28;19943;-80
2023/01/30 11:45:53;;;;;;;;;;;8.00;99.90;;;;;;5120811;28;19923;-80
2023/01/30 11:48:22;;;;;;;;;;;7.80;99.90;;;;;;5103391;28;19924;-80
2023/01/30 11:50:49;;;;;;;;;;;7.50;99.90;;;;;;5120901;27;19948;-80
2023/01/30 11:53:17;;;;;;;;;;;7.30;99.90;;;;;;5124400;27;19923;-80
2023/01/30 11:55:45;;;;;;;;;;;7.20;99.90;;;;;;5124579;27;20365;-81
2023/01/30 11:58:12;;;;;;;;;;;7.10;99.90;;;;;;5122475;27;20397;-80
2023/01/30 12:00:42;;;;;;;;;;;7.10;99.90;;;;;;5139477;27;19923;-81
2023/01/30 12:03:12;;;;;;;;;;;7.10;99.90;;;;;;5113954;27;19930;-81
2023/01/30 12:05:41;;;;;;;;;;;7.20;99.90;;;;;;5115748;28;19998;-81
2023/01/30 12:08:19;;;;;;;;;;;7.40;99.90;;;;;;5122911;27;19924;-81
2023/01/30 12:10:49;;;;;;;;;;;7.40;99.90;;;;;;5125287;27;19928;-81
2023/01/30 12:13:14;;;;;;;;;;;7.40;99.90;;;;;;5124839;27;19924;-80
2023/01/30 12:15:40;;;;;;;;;;;7.30;99.90;;;;;;5126317;27;19923;-80
2023/01/30 12:18:16;;;;;;;;;;;6.90;99.90;;;;;;5105794;27;19923;-80
2023/01/30 12:20:52;;;;;;;;;;;6.60;99.90;;;;;;5104816;28;19924;-80
2023/01/30 12:23:37;;;;;;;;;;;6.40;99.90;;;;;;5118226;27;19927;-81
2023/01/30 12:26:11;;;;;;;;;;;6.20;99.90;;;;;;5103722;28;19971;-80
2023/01/30 12:28:40;;;;;;;;;;;6.10;99.90;;;;;;5111258;27;19924;-81
2023/01/30 12:31:24;;;;;;;;;;;6.30;99.90;;;;;;5101489;28;19923;-80
2023/01/30 12:33:50;;;;;;;;;;;6.40;99.90;;;;;;5108632;27;19955;-80
2023/01/30 12:36:21;;;;;;;;;;;6.60;99.90;;;;;;5113408;27;19945;-80
2023/01/30 12:38:47;;;;;;;;;;;6.80;99.90;;;;;;5123889;27;19923;-81
2023/01/30 12:41:13;;;;;;;;;;;7.00;99.90;;;;;;5100798;27;19965;-80
2023/01/30 12:43:57;;;;;;;;;;;7.00;99.90;;;;;;5099906;27;19938;-82
2023/01/30 12:46:33;;;;;;;;;;;7.00;99.90;;;;;;5114902;27;19995;-81
2023/01/30 12:49:08;;;;;;;;;;;7.00;99.90;;;;;;5110415;27;19924;-81
2023/01/30 12:51:39;;;;;;;;;;;7.20;99.90;;;;;;5120681;27;19931;-80
2023/01/30 12:54:16;;;;;;;;;;;7.30;99.90;;;;;;5124499;27;19966;-80
2023/01/30 12:56:51;;;;;;;;;;;7.40;99.90;;;;;;5123210;27;19930;-81
2023/01/30 12:59:20;;;;;;;;;;;7.60;99.90;;;;;;5107709;27;19968;-81
2023/01/30 13:01:46;;;;;;;;;;;7.60;99.90;;;;;;5115775;28;19935;-81
2023/01/30 13:04:44;;;;;;;;;;;7.80;99.90;;;;;;5119470;27;19923;-81
2023/01/30 13:07:29;;;;;;;;;;;7.80;99.90;;;;;;5089816;27;19952;-81
2023/01/30 13:09:54;;;;;;;;;;;7.90;99.90;;;;;;5091728;27;19924;-80
2023/01/30 13:12:26;;;;;;;;;;;7.90;99.90;;;;;;5123768;27;19945;-80
2023/01/30 13:14:58;;;;;;;;;;;7.90;99.90;;;;;;5106304;27;19935;-80
2023/01/30 13:17:57;;;;;;;;;;;7.90;99.90;;;;;;5115470;27;19923;-81
2023/01/30 13:20:41;;;;;;;;;;;7.90;99.90;;;;;;5090411;27;19929;-81
2023/01/30 13:23:29;;;;;;;;;;;7.90;99.90;;;;;;5123165;27;19927;-81
2023/01/30 13:26:12;;;;;;;;;;;7.90;99.90;;;;;;5106384;27;19924;-81
2023/01/30 13:28:44;;;;;;;;;;;8.00;99.90;;;;;;5123946;27;20454;-81
2023/01/30 13:31:11;;;;;;;;;;;8.00;99.90;;;;;;5102270;28;19984;-81
2023/01/30 13:33:39;;;;;;;;;;;8.10;99.90;;;;;;5120008;27;19924;-81
2023/01/30 13:36:09;;;;;;;;;;;8.10;99.90;;;;;;5122792;27;19965;-81
2023/01/30 13:38:37;;;;;;;;;;;8.10;99.90;;;;;;5114664;28;19984;-81
2023/01/30 13:41:03;;;;;;;;;;;8.00;99.90;;;;;;5124110;27;19923;-81
2023/01/30 13:43:33;;;;;;;;;;;8.00;99.90;;;;;;5122416;27;19923;-81
2023/01/30 13:46:04;;;;;;;;;;;7.90;99.90;;;;;;5115974;28;19924;-81
2023/01/30 13:48:29;;;;;;;;;;;7.80;99.90;;;;;;5110769;27;19923;-81
2023/01/30 13:51:01;;;;;;;;;;;7.80;99.90;;;;;;5121170;27;19955;-80
2023/01/30 13:53:36;;;;;;;;;;;7.80;99.90;;;;;;5106364;27;19923;-81
2023/01/30 13:56:01;;;;;;;;;;;7.80;99.90;;;;;;5121202;27;19927;-81
2023/01/30 13:58:29;;;;;;;;;;;7.80;99.90;;;;;;5102660;27;19954;-81
2023/01/30 14:00:54;;;;;;;;;;;7.70;99.90;;;;;;5117727;27;20018;-81
2023/01/30 14:03:25;;;;;;;;;;;7.70;99.90;;;;;;5122270;27;19924;-81
2023/01/30 14:05:51;;;;;;;;;;;7.70;99.90;;;;;;5113472;27;19927;-80
2023/01/30 14:08:21;;;;;;;;;;;7.70;99.90;;;;;;5121685;27;19959;-81
2023/01/30 14:10:47;;;;;;;;;;;7.70;99.90;;;;;;5101927;27;19931;-81
2023/01/30 14:13:13;;;;;;;;;;;7.70;99.90;;;;;;5103849;27;19970;-81
2023/01/30 14:15:51;;;;;;;;;;;7.70;99.90;;;;;;5123398;27;19980;-80
2023/01/30 14:18:26;;;;;;;;;;;7.70;99.90;;;;;;5104808;27;19927;-81
2023/01/30 14:20:51;;;;;;;;;;;7.80;99.90;;;;;;5111177;27;19938;-81
2023/01/30 14:23:17;;;;;;;;;;;7.80;99.90;;;;;;5117788;27;19924;-80
2023/01/30 14:25:44;;;;;;;;;;;7.80;99.90;;;;;;5110568;27;19990;-81
2023/01/30 14:28:09;;;;;;;;;;;7.80;99.90;;;;;;5123412;27;19923;-80
2023/01/30 14:30:52;;;;;;;;;;;7.80;99.90;;;;;;5123348;27;19930;-80
2023/01/30 14:33:20;;;;;;;;;;;7.80;99.90;;;;;;5118462;27;19935;-80
2023/01/30 14:35:47;;;;;;;;;;;7.80;99.90;;;;;;5095929;27;19933;-81
2023/01/30 14:38:19;;;;;;;;;;;7.90;99.90;;;;;;5098002;27;19930;-81
2023/01/30 14:40:46;;;;;;;;;;;7.80;99.90;;;;;;5121279;27;19930;-80
2023/01/30 14:43:11;;;;;;;;;;;7.80;99.90;;;;;;5121913;27;19927;-80
2023/01/30 14:45:52;;;;;;;;;;;7.90;99.90;;;;;;5119196;27;19978;-81
2023/01/30 14:48:21;;;;;;;;;;;7.80;99.90;;;;;;5089176;28;19924;-81